Meco, Spain
Current Conditions -  °F | °C
As of 6:00 PM on Friday 19 Dec 2014 (Local Time) from LETO Reporting Station
Clear Clear  
Wind Chill: 48°   Ceiling: Unl
Heat Index: 48°   Visibility: 6mi
Dew Point: 45°   Wind: 2mph
Humidity: 87%   Direction: 230°SW
Pressure: 30.42"   Gusts: NA
Location:  40.55°N, 3.33°W
Report Text: LETO 191700Z 23002KT CAVOK 09/07 Q1030 NOSIG
Loading
Personal Weather Stations






























Interactive Weather Map New forecast layout! Learn more

10-Day Weather Forecast

Advertisements
Track Severe Weather on mobile